Time;durP1;ratioP1;P1;durP2;ratioP2;P2;SDS_P1;SDS_P2;PMS_P1;PMS_P2;Temp;Humidity;BMP_temperature;BMP_pressure;BME280_temperature;BME280_humidity;BME280_pressure;Samples;Min_cycle;Max_cycle;Signal;HPM_P1;HPM_P2
2021/09/05 00:00:30;;;;;;;20.63;12.53;;;;;;;14.90;100.00;96039.88;1048707;28;20016;-66
2021/09/05 00:01:00;;;;;;;19.33;12.77;;;;;;;14.86;100.00;96045.03;1048702;28;20036;-65
2021/09/05 00:01:30;;;;;;;18.17;12.40;;;;;;;14.85;100.00;96042.66;1048699;28;20013;-65
2021/09/05 00:02:01;;;;;;;17.80;12.23;;;;;;;14.83;100.00;96043.72;1048282;28;20024;-65
2021/09/05 00:02:31;;;;;;;17.53;11.90;;;;;;;14.81;100.00;96048.63;1048425;28;20016;-65
2021/09/05 00:03:02;;;;;;;16.77;11.80;;;;;;;14.80;100.00;96048.94;1048366;28;20021;-65
2021/09/05 00:03:32;;;;;;;19.77;12.20;;;;;;;14.80;100.00;96040.84;1048289;28;20351;-66
2021/09/05 00:04:03;;;;;;;19.10;12.17;;;;;;;14.77;100.00;96041.44;1044289;28;20021;-66
2021/09/05 00:04:33;;;;;;;17.37;11.77;;;;;;;14.78;100.00;96048.41;1044355;28;20025;-66
2021/09/05 00:05:04;;;;;;;15.60;12.17;;;;;;;14.74;100.00;96048.22;1044235;28;20044;-66
2021/09/05 00:05:34;;;;;;;15.63;11.87;;;;;;;14.69;100.00;96040.22;1044370;28;20551;-66
2021/09/05 00:06:04;;;;;;;16.87;11.97;;;;;;;14.67;100.00;96045.09;1048285;28;20078;-66
2021/09/05 00:06:35;;;;;;;16.40;11.27;;;;;;;14.64;100.00;96043.00;1048377;28;20020;-66
2021/09/05 00:07:05;;;;;;;17.87;12.00;;;;;;;14.61;100.00;96040.09;1048337;28;20017;-66
2021/09/05 00:07:36;;;;;;;17.50;11.73;;;;;;;14.63;100.00;96043.28;1048370;28;20031;-66
2021/09/05 00:08:06;;;;;;;17.53;12.07;;;;;;;14.63;100.00;96046.75;1048433;28;20027;-66
2021/09/05 00:08:37;;;;;;;17.07;12.10;;;;;;;14.61;100.00;96043.59;1048357;28;20016;-66
2021/09/05 00:09:07;;;;;;;19.70;12.20;;;;;;;14.59;100.00;96047.63;1048695;28;20016;-66
2021/09/05 00:09:37;;;;;;;20.17;12.10;;;;;;;14.53;100.00;96045.03;1048302;28;20138;-66
2021/09/05 00:10:08;;;;;;;18.27;12.13;;;;;;;14.52;100.00;96040.75;1044279;28;20024;-66
2021/09/05 00:10:38;;;;;;;18.57;12.03;;;;;;;14.52;100.00;96035.38;1044226;28;20028;-66
2021/09/05 00:11:10;;;;;;;16.60;11.67;;;;;;;14.51;100.00;96041.84;1044215;28;20028;-66
2021/09/05 00:11:40;;;;;;;16.88;11.95;;;;;;;14.53;100.00;96041.56;1044484;28;20497;-66
2021/09/05 00:12:11;;;;;;;17.73;12.47;;;;;;;14.54;100.00;96043.97;1048336;28;20036;-66
2021/09/05 00:12:42;;;;;;;19.17;11.87;;;;;;;14.48;100.00;96041.63;1048731;28;20024;-66
2021/09/05 00:13:12;;;;;;;19.58;12.20;;;;;;;14.47;100.00;96043.53;1048646;28;20028;-66
2021/09/05 00:13:43;;;;;;;16.93;12.23;;;;;;;14.49;100.00;96040.56;1048217;28;20047;-66
2021/09/05 00:14:13;;;;;;;18.83;13.10;;;;;;;14.44;100.00;96035.22;1044120;28;20021;-65
2021/09/05 00:14:44;;;;;;;17.67;12.00;;;;;;;14.43;100.00;96039.78;1044280;28;20032;-66
2021/09/05 00:15:14;;;;;;;16.73;12.30;;;;;;;14.42;100.00;96043.56;1044291;28;20087;-66
2021/09/05 00:15:44;;;;;;;15.97;12.10;;;;;;;14.41;100.00;96038.50;1048339;28;20090;-66
2021/09/05 00:16:15;;;;;;;17.50;11.80;;;;;;;14.39;100.00;96033.41;1048684;28;20029;-66
2021/09/05 00:16:45;;;;;;;17.43;12.07;;;;;;;14.41;100.00;96041.19;1048670;28;20020;-66
2021/09/05 00:17:16;;;;;;;18.93;12.13;;;;;;;14.40;100.00;96037.69;1044137;28;20028;-65
2021/09/05 00:17:46;;;;;;;17.67;12.13;;;;;;;14.41;100.00;96041.97;1044217;28;20033;-65
2021/09/05 00:18:16;;;;;;;16.80;12.37;;;;;;;14.41;100.00;96036.59;1044280;28;20033;-65
2021/09/05 00:18:47;;;;;;;20.37;12.70;;;;;;;14.44;100.00;96043.28;1044242;28;20437;-66
2021/09/05 00:19:17;;;;;;;15.73;11.30;;;;;;;14.43;100.00;96037.09;1048657;28;20523;-67
2021/09/05 00:19:48;;;;;;;19.27;11.60;;;;;;;14.48;100.00;96041.63;1043987;28;20106;-66
2021/09/05 00:20:18;;;;;;;22.57;12.33;;;;;;;14.46;100.00;96035.72;1040015;28;20497;-66
2021/09/05 00:20:49;;;;;;;18.30;11.70;;;;;;;14.48;100.00;96036.25;1040046;28;20089;-66
2021/09/05 00:21:19;;;;;;;17.77;12.00;;;;;;;14.49;100.00;96041.34;1040149;28;20017;-66
2021/09/05 00:21:49;;;;;;;18.67;12.00;;;;;;;14.49;100.00;96046.72;1044175;28;20017;-66
2021/09/05 00:22:20;;;;;;;16.30;11.73;;;;;;;14.51;100.00;96039.16;1048282;28;20017;-66
2021/09/05 00:22:50;;;;;;;18.20;12.20;;;;;;;14.49;100.00;96041.34;1048320;28;20085;-66
2021/09/05 00:23:21;;;;;;;18.27;11.87;;;;;;;14.50;100.00;96039.47;1044215;28;20017;-66
2021/09/05 00:23:51;;;;;;;15.70;11.90;;;;;;;14.53;100.00;96036.97;1048362;28;20005;-66
2021/09/05 00:24:21;;;;;;;16.73;11.03;;;;;;;14.56;100.00;96036.38;1048228;28;20488;-66
2021/09/05 00:24:52;;;;;;;15.70;11.70;;;;;;;14.60;100.00;96041.19;1048294;28;20019;-66
2021/09/05 00:25:22;;;;;;;17.33;13.13;;;;;;;14.59;100.00;96048.47;1044207;28;20028;-66
2021/09/05 00:25:53;;;;;;;16.73;11.50;;;;;;;14.57;100.00;96042.56;1044168;28;20140;-66
2021/09/05 00:26:23;;;;;;;18.53;12.00;;;;;;;14.59;100.00;96040.41;1044004;28;20017;-66
2021/09/05 00:26:53;;;;;;;16.40;11.47;;;;;;;14.61;100.00;96042.78;1044289;28;20017;-66
2021/09/05 00:27:24;;;;;;;15.97;11.73;;;;;;;14.61;100.00;96038.19;1044132;28;20013;-67
2021/09/05 00:27:54;;;;;;;17.20;12.40;;;;;;;14.63;100.00;96032.53;1044217;28;20346;-67
2021/09/05 00:28:25;;;;;;;16.47;12.27;;;;;;;14.64;100.00;96042.19;1048320;28;20472;-66
2021/09/05 00:28:55;;;;;;;17.13;11.13;;;;;;;14.67;100.00;96044.28;1048296;28;20013;-67
2021/09/05 00:29:25;;;;;;;19.40;11.87;;;;;;;14.67;100.00;96045.09;1044141;28;20021;-67
2021/09/05 00:29:56;;;;;;;15.33;11.07;;;;;;;14.68;100.00;96037.81;1044190;28;20028;-67
2021/09/05 00:30:26;;;;;;;16.40;11.37;;;;;;;14.71;100.00;96040.72;1044107;28;20017;-67
2021/09/05 00:30:57;;;;;;;16.50;11.70;;;;;;;14.73;100.00;96049.28;1044206;28;20009;-67
2021/09/05 00:31:27;;;;;;;18.67;12.20;;;;;;;14.73;100.00;96045.78;1048601;28;20016;-67
2021/09/05 00:31:58;;;;;;;19.20;11.77;;;;;;;14.73;100.00;96046.59;1048323;28;20035;-67
2021/09/05 00:32:28;;;;;;;17.43;11.53;;;;;;;14.74;100.00;96044.69;1048217;28;20445;-67
2021/09/05 00:33:01;;;;;;;14.33;10.93;;;;;;;14.75;100.00;96049.81;1048287;28;20012;-67
2021/09/05 00:33:32;;;;;;;16.83;11.38;;;;;;;14.77;100.00;96050.28;1048299;28;20025;-67
2021/09/05 00:34:03;;;;;;;17.10;11.30;;;;;;;14.79;100.00;96044.63;1048591;28;20021;-67
2021/09/05 00:34:33;;;;;;;17.35;11.48;;;;;;;14.79;100.00;96042.75;1048294;28;20021;-67
2021/09/05 00:35:04;;;;;;;17.77;12.47;;;;;;;14.79;100.00;96044.63;1048317;28;20059;-67
2021/09/05 00:35:35;;;;;;;15.75;12.00;;;;;;;14.78;100.00;96043.03;1040013;28;20028;-67
2021/09/05 00:36:05;;;;;;;19.60;11.70;;;;;;;14.76;100.00;96042.53;1040343;28;20462;-67
2021/09/05 00:36:36;;;;;;;15.53;10.93;;;;;;;14.76;100.00;96045.22;1039902;28;20017;-67
2021/09/05 00:37:06;;;;;;;16.07;11.00;;;;;;;14.72;100.00;96039.63;1040157;28;20358;-67
2021/09/05 00:37:37;;;;;;;16.07;11.13;;;;;;;14.68;100.00;96044.00;1044160;28;20036;-67
2021/09/05 00:38:07;;;;;;;16.17;11.90;;;;;;;14.65;100.00;96043.78;1044212;28;20017;-68
2021/09/05 00:38:37;;;;;;;16.03;11.50;;;;;;;14.63;100.00;96038.69;1044193;28;20481;-67
2021/09/05 00:39:09;;;;;;;15.33;11.20;;;;;;;14.63;100.00;96037.91;1044045;28;20489;-67
2021/09/05 00:39:39;;;;;;;17.80;11.90;;;;;;;14.62;100.00;96045.16;1044126;28;20397;-67
2021/09/05 00:40:10;;;;;;;19.00;11.87;;;;;;;14.62;100.00;96041.69;1044295;28;20017;-67
2021/09/05 00:40:41;;;;;;;16.58;12.25;;;;;;;14.60;100.00;96039.31;1044192;28;20018;-67
2021/09/05 00:41:11;;;;;;;15.83;11.80;;;;;;;14.59;100.00;96035.03;1048231;28;20442;-67
2021/09/05 00:41:42;;;;;;;18.53;11.37;;;;;;;14.57;100.00;96043.34;1048288;28;20029;-67
2021/09/05 00:42:12;;;;;;;20.23;11.73;;;;;;;14.55;100.00;96045.56;1048286;28;20032;-67
2021/09/05 00:42:42;;;;;;;17.93;12.37;;;;;;;14.58;100.00;96041.47;1043940;28;20059;-67
2021/09/05 00:43:13;;;;;;;17.57;12.10;;;;;;;14.56;100.00;96049.84;1039941;28;20029;-67
2021/09/05 00:43:57;;;;;;;16.13;11.33;;;;;;;14.57;100.00;96042.56;1039974;28;20021;-67
2021/09/05 00:44:27;;;;;;;16.67;11.57;;;;;;;14.59;100.00;96036.88;1043664;28;20033;-67
2021/09/05 00:44:57;;;;;;;22.03;11.77;;;;;;;14.61;100.00;96043.59;1048361;28;20052;-67
2021/09/05 00:45:28;;;;;;;16.30;11.73;;;;;;;14.64;100.00;96043.00;1048545;28;20069;-67
2021/09/05 00:45:58;;;;;;;15.57;11.20;;;;;;;14.66;100.00;96040.00;1048184;28;20669;-67
2021/09/05 00:46:30;;;;;;;16.13;11.50;;;;;;;14.62;100.00;96039.00;1048189;28;20012;-67
2021/09/05 00:47:00;;;;;;;17.10;11.95;;;;;;;14.62;100.00;96034.41;1048204;28;20461;-67
2021/09/05 00:47:30;;;;;;;17.87;11.90;;;;;;;14.64;100.00;96040.31;1048210;28;20025;-67
2021/09/05 00:48:01;;;;;;;16.47;10.97;;;;;;;14.66;100.00;96045.38;1048543;28;20035;-67
2021/09/05 00:48:31;;;;;;;16.17;11.23;;;;;;;14.68;100.00;96044.00;1048512;28;20024;-67
2021/09/05 00:49:02;;;;;;;15.23;11.17;;;;;;;14.66;100.00;96046.19;1048476;28;20025;-67
2021/09/05 00:49:32;;;;;;;16.83;11.90;;;;;;;14.64;100.00;96042.19;1048514;28;20025;-67
2021/09/05 00:50:03;;;;;;;15.97;10.97;;;;;;;14.62;100.00;96042.47;1048498;28;20082;-67
2021/09/05 00:50:34;;;;;;;18.53;10.77;;;;;;;14.62;100.00;96045.16;1043949;28;20028;-67
2021/09/05 00:51:05;;;;;;;20.77;11.48;;;;;;;14.60;100.00;96041.19;1039966;28;20028;-67
2021/09/05 00:51:36;;;;;;;15.67;10.93;;;;;;;14.60;100.00;96046.56;1039926;28;20044;-67
2021/09/05 00:52:07;;;;;;;15.32;11.45;;;;;;;14.59;100.00;96048.47;1036492;28;20097;-67
2021/09/05 00:52:37;;;;;;;15.27;10.47;;;;;;;14.59;100.00;96050.31;1040248;28;20021;-67
2021/09/05 00:53:08;;;;;;;16.27;11.27;;;;;;;14.59;100.00;96050.31;1044091;28;20021;-67
2021/09/05 00:53:38;;;;;;;17.17;10.50;;;;;;;14.53;100.00;96046.94;1044257;28;20480;-67
2021/09/05 00:54:11;;;;;;;16.43;11.23;;;;;;;14.52;100.00;96040.75;1048199;28;20085;-67
2021/09/05 00:54:42;;;;;;;15.93;11.27;;;;;;;14.53;100.00;96047.72;1048569;28;20504;-67
2021/09/05 00:55:13;;;;;;;18.63;11.57;;;;;;;14.50;100.00;96042.16;1048494;28;20481;-67
2021/09/05 00:55:43;;;;;;;15.53;10.87;;;;;;;14.48;100.00;96039.72;1048590;28;20028;-67
2021/09/05 00:56:14;;;;;;;17.67;11.50;;;;;;;14.50;100.00;96047.53;1048569;28;20020;-67
2021/09/05 00:56:44;;;;;;;18.80;11.67;;;;;;;14.51;100.00;96046.44;1048242;28;20024;-67
2021/09/05 00:57:16;;;;;;;16.10;11.30;;;;;;;14.48;100.00;96053.19;1039872;28;20023;-67
2021/09/05 00:57:46;;;;;;;16.60;11.98;;;;;;;14.46;100.00;96041.91;1040004;28;20021;-67
2021/09/05 00:58:17;;;;;;;19.07;12.43;;;;;;;14.42;100.00;96048.94;1040325;28;20049;-67
2021/09/05 00:58:47;;;;;;;16.37;12.13;;;;;;;14.44;100.00;96049.47;1032358;28;20049;-67
2021/09/05 00:59:20;;;;;;;20.80;12.23;;;;;;;14.46;100.00;96054.53;1039986;28;20430;-67
2021/09/05 00:59:50;;;;;;;21.00;12.13;;;;;;;14.43;100.00;96052.44;1039980;28;20065;-67
2021/09/05 01:00:22;;;;;;;17.03;12.20;;;;;;;14.41;100.00;96047.34;1040636;28;20085;-67
2021/09/05 01:00:53;;;;;;;15.90;11.55;;;;;;;14.42;100.00;96059.69;1048506;28;20384;-67
2021/09/05 01:01:23;;;;;;;22.37;11.77;;;;;;;14.43;100.00;96047.84;1048522;28;20024;-67
2021/09/05 01:01:54;;;;;;;17.43;11.60;;;;;;;14.41;100.00;96058.09;1044098;28;20020;-67
2021/09/05 01:02:24;;;;;;;17.03;12.00;;;;;;;14.41;100.00;96058.09;1039854;28;20049;-67
2021/09/05 01:02:55;;;;;;;15.93;11.43;;;;;;;14.37;100.00;96059.78;1039978;28;20486;-67
2021/09/05 01:03:25;;;;;;;17.63;12.07;;;;;;;14.39;100.00;96044.16;1036172;28;20347;-67
2021/09/05 01:03:56;;;;;;;15.70;11.97;;;;;;;14.40;100.00;96056.53;1044165;28;20387;-67
2021/09/05 01:04:26;;;;;;;16.20;12.03;;;;;;;14.37;100.00;96057.09;1048200;28;20016;-67
2021/09/05 01:04:56;;;;;;;16.83;12.80;;;;;;;14.38;100.00;96049.81;1044218;28;20181;-67
2021/09/05 01:05:27;;;;;;;17.80;12.33;;;;;;;14.36;100.00;96054.69;1048055;28;20061;-67
2021/09/05 01:05:57;;;;;;;17.77;12.90;;;;;;;14.39;100.00;96056.81;1047610;28;20028;-67
2021/09/05 01:06:28;;;;;;;17.20;12.77;;;;;;;14.37;100.00;96053.59;1047952;28;20020;-67
2021/09/05 01:06:58;;;;;;;15.43;12.20;;;;;;;14.33;100.00;96048.03;1044140;28;20017;-67
2021/09/05 01:07:29;;;;;;;15.70;12.60;;;;;;;14.32;100.00;96049.91;1035798;28;20037;-67
2021/09/05 01:07:59;;;;;;;17.73;12.90;;;;;;;14.35;100.00;96059.28;1031805;28;20021;-67
2021/09/05 01:08:30;;;;;;;15.43;11.57;;;;;;;14.32;100.00;96052.59;1031791;28;20018;-67
2021/09/05 01:09:00;;;;;;;16.73;13.10;;;;;;;14.30;100.00;96053.97;1031940;28;20105;-67
2021/09/05 01:09:30;;;;;;;18.23;13.33;;;;;;;14.32;100.00;96055.28;1035994;28;20088;-67
2021/09/05 01:10:01;;;;;;;17.07;12.33;;;;;;;14.30;100.00;96052.09;1039871;28;20014;-66
2021/09/05 01:10:31;;;;;;;19.73;12.40;;;;;;;14.33;100.00;96053.41;1040018;28;20025;-66
2021/09/05 01:11:02;;;;;;;18.10;13.17;;;;;;;14.32;100.00;96055.28;1044174;28;20025;-66
2021/09/05 01:11:33;;;;;;;18.57;13.53;;;;;;;14.29;100.00;96050.50;1039851;28;20033;-66
2021/09/05 01:12:03;;;;;;;20.17;12.90;;;;;;;14.34;100.00;96057.69;1040010;28;20491;-66
2021/09/05 01:12:34;;;;;;;17.00;12.60;;;;;;;14.34;100.00;96054.22;1044061;28;20028;-66
2021/09/05 01:13:04;;;;;;;15.60;11.90;;;;;;;14.35;100.00;96053.13;1040179;28;20119;-68
2021/09/05 01:13:35;;;;;;;20.00;13.07;;;;;;;14.35;100.00;96050.41;1044104;28;20021;-66
2021/09/05 01:14:06;;;;;;;18.67;12.90;;;;;;;14.35;100.00;96056.59;1039895;28;20017;-66
2021/09/05 01:14:36;;;;;;;17.67;12.60;;;;;;;14.34;100.00;96054.22;1035853;28;20033;-66
2021/09/05 01:15:07;;;;;;;20.00;13.67;;;;;;;14.16;100.00;96055.78;1032135;28;20025;-66
2021/09/05 01:15:37;;;;;;;19.57;13.20;;;;;;;14.18;100.00;96056.31;1040103;28;20018;-66
2021/09/05 01:16:28;;;;;;;18.93;12.77;;;;;;;14.18;100.00;96051.75;1044156;28;20374;-66
2021/09/05 01:16:58;;;;;;;16.90;12.63;;;;;;;14.17;100.00;96060.88;1048332;28;20020;-66
2021/09/05 01:17:28;;;;;;;18.23;13.10;;;;;;;14.19;100.00;96047.97;1048573;28;20082;-66
2021/09/05 01:17:59;;;;;;;21.57;13.60;;;;;;;14.22;100.00;96051.94;1048478;28;20070;-66
2021/09/05 01:18:29;;;;;;;22.57;13.30;;;;;;;14.22;100.00;96054.63;1048189;28;20047;-66
2021/09/05 01:19:12;;;;;;;16.47;12.73;;;;;;;14.23;100.00;96056.25;1044035;28;20017;-66
2021/09/05 01:19:43;;;;;;;19.98;12.98;;;;;;;14.21;100.00;96058.41;1044116;28;20029;-66
2021/09/05 01:20:13;;;;;;;21.73;13.10;;;;;;;14.25;100.00;96054.06;1045509;28;20041;-66
2021/09/05 01:20:44;;;;;;;16.47;11.90;;;;;;;14.20;100.00;96051.44;1049977;28;20039;-66
2021/09/05 01:21:14;;;;;;;20.33;13.00;;;;;;;14.19;100.00;96057.91;1048054;28;20025;-66
2021/09/05 01:21:47;;;;;;;16.43;13.47;;;;;;;14.18;100.00;96057.13;1048239;28;20078;-66
2021/09/05 01:22:17;;;;;;;19.30;13.68;;;;;;;14.23;100.00;96058.94;1043998;28;20465;-66
2021/09/05 01:22:48;;;;;;;19.23;13.23;;;;;;;14.16;100.00;96061.19;1044370;28;20025;-66
2021/09/05 01:23:18;;;;;;;18.23;12.70;;;;;;;14.18;100.00;96064.38;1048188;28;20024;-66
2021/09/05 01:23:48;;;;;;;16.87;12.47;;;;;;;14.19;100.00;96058.72;1048145;28;20035;-67
2021/09/05 01:24:20;;;;;;;20.00;13.20;;;;;;;14.18;100.00;96062.50;1048443;28;20086;-66
2021/09/05 01:24:51;;;;;;;18.83;12.18;;;;;;;14.20;100.00;96057.63;1043995;28;20013;-66
2021/09/05 01:25:21;;;;;;;16.87;12.87;;;;;;;14.23;100.00;96061.63;1043987;28;20025;-66
2021/09/05 01:25:52;;;;;;;19.10;12.97;;;;;;;14.18;100.00;96062.50;1044029;28;20037;-66
2021/09/05 01:26:22;;;;;;;21.33;13.30;;;;;;;14.21;100.00;96056.53;1044320;28;20055;-66
2021/09/05 01:26:56;;;;;;;22.17;13.53;;;;;;;14.19;100.00;96057.91;1048504;28;20016;-66
2021/09/05 01:27:27;;;;;;;21.17;13.50;;;;;;;14.18;100.00;96056.31;1048152;28;20103;-66
2021/09/05 01:27:57;;;;;;;18.47;13.07;;;;;;;14.19;100.00;96055.22;1039954;28;20022;-66
2021/09/05 01:28:27;;;;;;;17.80;12.97;;;;;;;14.22;100.00;96055.44;1039950;28;20022;-66
2021/09/05 01:28:58;;;;;;;18.97;12.77;;;;;;;14.21;100.00;96058.41;1040013;28;20017;-66
2021/09/05 01:29:28;;;;;;;20.07;13.60;;;;;;;14.22;100.00;96054.63;1039958;28;20018;-66
2021/09/05 01:29:59;;;;;;;18.80;13.10;;;;;;;14.24;100.00;96055.16;1044072;28;20020;-66
2021/09/05 01:30:29;;;;;;;18.80;13.13;;;;;;;14.24;100.00;96055.94;1044030;28;20458;-66
2021/09/05 01:30:59;;;;;;;19.03;13.40;;;;;;;14.23;100.00;96061.63;1039957;28;20020;-66
2021/09/05 01:31:44;;;;;;;16.17;12.63;;;;;;;14.21;100.00;96059.22;1044051;28;20036;-66
2021/09/05 01:32:14;;;;;;;20.52;13.38;;;;;;;14.19;100.00;96056.03;1048106;28;20020;-66
2021/09/05 01:32:45;;;;;;;19.50;13.53;;;;;;;14.18;100.00;96054.44;1048267;28;20366;-66
2021/09/05 01:33:15;;;;;;;20.10;13.23;;;;;;;14.17;100.00;96057.38;1048432;28;20012;-66
2021/09/05 01:33:46;;;;;;;20.90;14.10;;;;;;;14.15;100.00;96067.66;1048188;28;20465;-67
2021/09/05 01:34:19;;;;;;;17.30;12.90;;;;;;;14.14;100.00;96058.78;1048142;28;20013;-66
2021/09/05 01:34:49;;;;;;;20.27;13.15;;;;;;;14.15;100.00;96056.91;1043969;28;20493;-66
2021/09/05 01:35:19;;;;;;;19.27;14.00;;;;;;;14.03;100.00;96060.81;1044270;28;20017;-66
2021/09/05 01:35:50;;;;;;;19.30;13.70;;;;;;;14.01;100.00;96056.81;1048175;28;20017;-66
2021/09/05 01:36:20;;;;;;;18.00;14.00;;;;;;;14.05;100.00;96060.53;1048086;28;20019;-66
2021/09/05 01:36:52;;;;;;;20.23;14.40;;;;;;;14.06;100.00;96059.44;1048486;28;20017;-66
2021/09/05 01:37:22;;;;;;;19.95;14.13;;;;;;;14.04;100.00;96069.69;1048434;28;20021;-66
2021/09/05 01:37:52;;;;;;;18.93;13.87;;;;;;;14.04;100.00;96067.78;1048134;28;20020;-66
2021/09/05 01:38:23;;;;;;;20.97;13.73;;;;;;;14.04;100.00;96061.63;1048078;28;20050;-66
2021/09/05 01:38:53;;;;;;;20.63;14.77;;;;;;;14.05;100.00;96071.28;1048190;28;20055;-66
2021/09/05 01:39:24;;;;;;;19.67;14.87;;;;;;;14.00;100.00;96069.44;1048095;28;20038;-66
2021/09/05 01:39:55;;;;;;;19.83;14.33;;;;;;;14.01;100.00;96065.66;1048453;28;20038;-66
2021/09/05 01:40:25;;;;;;;18.00;13.95;;;;;;;13.99;100.00;96070.53;1048435;28;20020;-66
2021/09/05 01:40:55;;;;;;;19.17;14.60;;;;;;;14.00;100.00;96069.44;1048186;28;20115;-66
2021/09/05 01:41:26;;;;;;;23.80;15.17;;;;;;;13.94;100.00;96081.34;1048124;28;20370;-66
2021/09/05 01:41:56;;;;;;;19.37;14.67;;;;;;;13.98;100.00;96071.63;1048162;28;20504;-66
2021/09/05 01:42:27;;;;;;;22.63;14.27;;;;;;;13.99;100.00;96067.06;1039865;28;20025;-66
2021/09/05 01:42:57;;;;;;;19.47;14.57;;;;;;;13.94;100.00;96078.66;1044090;28;20021;-66
2021/09/05 01:43:28;;;;;;;24.87;14.80;;;;;;;13.96;100.00;96073.78;1039816;28;20010;-66
2021/09/05 01:44:02;;;;;;;17.50;13.80;;;;;;;13.98;100.00;96076.22;1040022;28;20025;-66
2021/09/05 01:44:33;;;;;;;17.35;13.43;;;;;;;14.02;100.00;96071.84;1043945;28;20045;-66
2021/09/05 01:45:04;;;;;;;19.97;14.00;;;;;;;14.02;100.00;96077.22;1044626;28;20021;-66
2021/09/05 01:45:34;;;;;;;19.63;14.77;;;;;;;14.02;100.00;96075.34;1048057;28;20009;-66
2021/09/05 01:46:04;;;;;;;20.23;14.47;;;;;;;13.97;100.00;96075.41;1043935;28;20023;-66
2021/09/05 01:46:35;;;;;;;19.40;14.63;;;;;;;13.97;100.00;96072.72;1044053;28;20021;-66
2021/09/05 01:47:05;;;;;;;19.33;14.33;;;;;;;13.97;100.00;96078.09;1048162;28;20055;-66
2021/09/05 01:47:36;;;;;;;18.53;14.57;;;;;;;13.94;100.00;96078.66;1043992;28;20017;-66
2021/09/05 01:48:06;;;;;;;17.83;13.87;;;;;;;13.95;100.00;96085.63;1044069;28;20017;-66
2021/09/05 01:48:36;;;;;;;18.40;14.20;;;;;;;13.97;100.00;96080.78;1039893;28;20553;-66
2021/09/05 01:49:07;;;;;;;19.13;14.30;;;;;;;13.94;100.00;96075.97;1039944;28;20013;-66
2021/09/05 01:49:37;;;;;;;22.00;14.67;;;;;;;13.93;100.00;96078.97;1044018;28;20032;-66
2021/09/05 01:50:08;;;;;;;19.37;14.20;;;;;;;13.93;100.00;96078.97;1048180;28;20082;-66
2021/09/05 01:50:39;;;;;;;18.42;13.95;;;;;;;13.91;100.00;96084.59;1048079;28;20102;-66
2021/09/05 01:51:09;;;;;;;21.33;14.37;;;;;;;13.91;100.00;96086.50;1044187;28;20032;-66
2021/09/05 01:51:40;;;;;;;19.57;14.83;;;;;;;13.91;100.00;96084.59;1048052;28;20090;-66
2021/09/05 01:52:10;;;;;;;19.30;14.07;;;;;;;13.88;100.00;96070.97;1043934;28;20024;-66
2021/09/05 01:52:40;;;;;;;18.67;14.03;;;;;;;13.90;100.00;96083.00;1043950;28;20083;-66
2021/09/05 01:53:11;;;;;;;20.70;14.70;;;;;;;13.91;100.00;96081.13;1044064;28;20070;-66
2021/09/05 01:53:41;;;;;;;21.03;14.73;;;;;;;13.87;100.00;96082.78;1039838;28;20092;-66
2021/09/05 01:54:12;;;;;;;22.27;14.73;;;;;;;13.85;100.00;96076.91;1048184;28;20485;-66
2021/09/05 01:54:42;;;;;;;21.80;14.17;;;;;;;13.87;100.00;96085.47;1039708;28;20029;-66
2021/09/05 01:55:13;;;;;;;16.87;13.57;;;;;;;13.88;100.00;96085.19;1039980;28;20017;-66
2021/09/05 01:55:44;;;;;;;22.13;15.65;;;;;;;13.85;100.00;96083.06;1043885;28;20401;-66
2021/09/05 01:56:14;;;;;;;17.90;14.27;;;;;;;13.85;100.00;96080.41;1044182;28;20049;-66
2021/09/05 01:56:45;;;;;;;22.23;15.57;;;;;;;13.82;100.00;96083.69;1048386;28;20024;-66
2021/09/05 01:57:15;;;;;;;22.00;14.73;;;;;;;13.81;100.00;96084.75;1048136;28;20013;-66
2021/09/05 01:57:45;;;;;;;21.37;14.93;;;;;;;13.84;100.00;96073.44;1043941;28;20458;-66
2021/09/05 01:58:16;;;;;;;21.43;14.33;;;;;;;13.85;100.00;96074.22;1043888;28;20017;-65
2021/09/05 01:58:46;;;;;;;19.40;14.37;;;;;;;13.84;100.00;96073.44;1039925;28;20382;-66
2021/09/05 01:59:17;;;;;;;18.70;14.73;;;;;;;13.82;100.00;96078.31;1043995;28;20020;-66
2021/09/05 01:59:47;;;;;;;19.07;14.47;;;;;;;13.80;100.00;96088.50;1043852;28;20020;-66
2021/09/05 02:00:18;;;;;;;22.00;14.73;;;;;;;13.81;100.00;96082.06;1039915;28;20032;-66
2021/09/05 02:00:48;;;;;;;23.47;14.80;;;;;;;13.78;100.00;96080.75;1043963;28;20025;-66
2021/09/05 02:01:18;;;;;;;21.33;14.43;;;;;;;13.81;100.00;96078.56;1044033;28;20017;-66
2021/09/05 02:01:49;;;;;;;19.37;14.77;;;;;;;13.82;100.00;96081.00;1048062;28;20377;-65
2021/09/05 02:02:19;;;;;;;22.07;14.67;;;;;;;13.79;100.00;96081.56;1048085;28;20468;-65
2021/09/05 02:02:51;;;;;;;18.60;14.57;;;;;;;13.78;100.00;96083.44;1048090;28;20043;-65
2021/09/05 02:03:21;;;;;;;19.83;14.23;;;;;;;13.80;100.00;96077.78;1043858;28;20508;-65
2021/09/05 02:03:52;;;;;;;20.50;14.97;;;;;;;13.81;100.00;96082.06;1040096;28;20032;-65
2021/09/05 02:04:22;;;;;;;18.23;14.03;;;;;;;13.83;100.00;96084.47;1043941;28;20075;-66
2021/09/05 02:04:53;;;;;;;22.50;15.20;;;;;;;13.84;100.00;96080.69;1043964;28;20071;-66
2021/09/05 02:05:23;;;;;;;21.17;15.30;;;;;;;13.77;100.00;96083.75;1044000;28;20021;-66
2021/09/05 02:05:54;;;;;;;20.73;15.57;;;;;;;13.73;100.00;96080.81;1048135;28;20098;-66
2021/09/05 02:06:26;;;;;;;22.07;14.67;;;;;;;13.73;100.00;96078.13;1048027;28;20090;-66
2021/09/05 02:06:56;;;;;;;19.08;13.90;;;;;;;13.74;100.00;96084.31;1044204;28;20017;-66
2021/09/05 02:07:27;;;;;;;21.40;14.23;;;;;;;13.75;100.00;96088.56;1048167;28;20056;-66
2021/09/05 02:07:57;;;;;;;23.80;15.67;;;;;;;13.74;100.00;96078.94;1048095;28;20512;-66
2021/09/05 02:08:28;;;;;;;19.03;14.87;;;;;;;13.71;100.00;96085.66;1048134;28;20070;-66
2021/09/05 02:08:58;;;;;;;19.23;14.17;;;;;;;13.72;100.00;96087.28;1048369;28;20024;-66
2021/09/05 02:09:29;;;;;;;19.40;14.17;;;;;;;13.76;100.00;96082.13;1048418;28;20055;-66
2021/09/05 02:09:59;;;;;;;22.47;15.43;;;;;;;13.77;100.00;96081.06;1048399;28;20462;-65
2021/09/05 02:10:29;;;;;;;21.97;14.33;;;;;;;13.75;100.00;96081.31;1048039;28;20097;-66
2021/09/05 02:11:00;;;;;;;20.20;14.10;;;;;;;13.75;100.00;96085.91;1048026;28;20020;-65
2021/09/05 02:11:30;;;;;;;19.20;14.60;;;;;;;13.72;100.00;96089.16;1048140;28;20024;-66
2021/09/05 02:12:01;;;;;;;19.00;14.70;;;;;;;13.73;100.00;96083.50;1048068;28;20066;-66
2021/09/05 02:12:31;;;;;;;20.40;14.37;;;;;;;13.75;100.00;96091.25;1048404;28;20420;-65
2021/09/05 02:13:01;;;;;;;20.47;15.27;;;;;;;13.71;100.00;96092.91;1043820;28;20544;-66
2021/09/05 02:13:32;;;;;;;16.13;13.60;;;;;;;13.70;100.00;96088.63;1044001;28;20024;-66
2021/09/05 02:14:03;;;;;;;19.63;14.37;;;;;;;13.70;100.00;96080.59;1043922;28;20083;-66
2021/09/05 02:14:33;;;;;;;20.27;15.30;;;;;;;13.72;100.00;96086.47;1044097;28;20035;-66
2021/09/05 02:15:04;;;;;;;20.60;14.83;;;;;;;13.72;100.00;96086.47;1048382;28;20099;-65
2021/09/05 02:15:34;;;;;;;19.73;14.15;;;;;;;13.74;100.00;96098.53;1048052;28;20027;-66
2021/09/05 02:16:05;;;;;;;19.13;14.93;;;;;;;13.71;100.00;96091.03;1048072;28;20017;-66
2021/09/05 02:16:36;;;;;;;22.63;14.50;;;;;;;13.67;100.00;96090.03;1048092;28;20048;-66
2021/09/05 02:17:06;;;;;;;17.73;13.40;;;;;;;13.71;100.00;96090.22;1048062;28;20113;-66
2021/09/05 02:17:37;;;;;;;17.17;13.90;;;;;;;13.70;100.00;96092.13;1049025;28;20078;-66
2021/09/05 02:18:07;;;;;;;18.67;14.03;;;;;;;13.73;100.00;96094.25;1049162;28;20020;-65
2021/09/05 02:18:37;;;;;;;21.17;14.43;;;;;;;13.70;100.00;96091.31;1049101;28;20032;-65
2021/09/05 02:19:08;;;;;;;18.73;14.70;;;;;;;13.67;100.00;96092.72;1049063;28;20032;-66
2021/09/05 02:19:38;;;;;;;20.70;13.93;;;;;;;13.65;100.00;96083.31;1048793;28;20025;-66
2021/09/05 02:20:09;;;;;;;19.23;14.40;;;;;;;13.66;100.00;96092.97;1044398;28;20090;-66